Time;durP1;ratioP1;P1;durP2;ratioP2;P2;SDS_P1;SDS_P2;PMS_P1;PMS_P2;Temp;Humidity;BMP_temperature;BMP_pressure;BME280_temperature;BME280_humidity;BME280_pressure;Samples;Min_cycle;Max_cycle;Signal;HPM_P1;HPM_P2
2023/04/30 00:01:56;;;;;;;18.80;9.85;;;7.50;99.90;;;;;;5071116;28;20030;-76
2023/04/30 00:04:22;;;;;;;16.50;10.15;;;7.40;99.90;;;;;;5071072;28;20115;-75
2023/04/30 00:06:47;;;;;;;17.70;9.75;;;7.40;99.90;;;;;;5061290;28;20096;-75
2023/04/30 00:09:13;;;;;;;17.52;8.90;;;7.40;99.90;;;;;;5051221;28;20033;-75
2023/04/30 00:11:38;;;;;;;15.80;8.85;;;7.30;99.90;;;;;;5069774;28;20052;-75
2023/04/30 00:14:04;;;;;;;17.02;8.95;;;7.30;99.90;;;;;;5053451;28;20452;-75
2023/04/30 00:16:29;;;;;;;17.08;8.75;;;7.30;99.90;;;;;;5070741;28;20045;-75
2023/04/30 00:18:55;;;;;;;17.77;9.73;;;7.20;99.90;;;;;;5062464;28;20473;-75
2023/04/30 00:21:20;;;;;;;13.90;8.13;;;7.20;99.90;;;;;;5050905;28;20036;-75
2023/04/30 00:23:46;;;;;;;11.60;7.40;;;7.20;99.90;;;;;;5052901;28;20092;-75
2023/04/30 00:26:11;;;;;;;13.20;7.68;;;7.20;99.90;;;;;;5070754;28;20036;-75
2023/04/30 00:28:37;;;;;;;14.13;7.88;;;7.30;99.90;;;;;;5071678;28;20027;-75
2023/04/30 00:31:05;;;;;;;16.20;8.52;;;7.40;99.90;;;;;;5053310;28;20021;-75
2023/04/30 00:33:31;;;;;;;17.00;9.93;;;7.40;99.90;;;;;;5054073;28;20031;-75
2023/04/30 00:35:56;;;;;;;10.90;7.85;;;7.40;99.90;;;;;;5070895;28;20025;-75
2023/04/30 00:38:23;;;;;;;15.93;7.97;;;7.40;99.90;;;;;;5070770;28;20055;-75
2023/04/30 00:40:48;;;;;;;13.23;7.97;;;7.30;99.90;;;;;;5058353;28;20395;-75
2023/04/30 00:43:14;;;;;;;16.77;8.57;;;7.30;99.90;;;;;;5063576;28;20029;-75
2023/04/30 00:45:39;;;;;;;13.13;8.38;;;7.30;99.90;;;;;;5069136;28;20028;-75
2023/04/30 00:48:06;;;;;;;13.45;7.97;;;7.30;99.90;;;;;;5050930;28;20043;-75
2023/04/30 00:50:34;;;;;;;14.88;8.25;;;7.30;99.90;;;;;;5058277;28;20031;-75
2023/04/30 00:53:00;;;;;;;17.92;9.82;;;7.30;99.90;;;;;;5074018;28;20028;-74
2023/04/30 00:55:25;;;;;;;14.52;7.93;;;7.20;99.90;;;;;;5074971;28;20021;-75
2023/04/30 00:57:51;;;;;;;15.13;8.88;;;7.20;99.90;;;;;;5073699;28;20041;-74
2023/04/30 01:00:17;;;;;;;17.23;10.05;;;7.10;99.90;;;;;;5075753;28;20072;-75
2023/04/30 01:02:43;;;;;;;18.20;8.98;;;7.00;99.90;;;;;;5074917;28;20102;-74
2023/04/30 01:05:08;;;;;;;15.23;9.18;;;7.00;99.90;;;;;;5056517;28;20036;-75
2023/04/30 01:07:43;;;;;;;17.52;9.35;;;7.00;99.90;;;;;;5074822;28;20106;-74
2023/04/30 01:10:11;;;;;;;15.95;8.95;;;6.90;99.90;;;;;;5074260;28;20487;-75
2023/04/30 01:12:52;;;;;;;16.63;8.80;;;6.90;99.90;;;;;;5074588;28;20112;-75
2023/04/30 01:15:42;;;;;;;15.90;8.80;;;6.80;99.90;;;;;;5065189;28;20053;-75
2023/04/30 01:18:27;;;;;;;15.88;9.27;;;6.70;99.90;;;;;;5051424;28;20033;-74
2023/04/30 01:20:57;;;;;;;15.68;8.35;;;6.70;99.90;;;;;;5054430;28;20489;-74
2023/04/30 01:23:53;;;;;;;17.50;8.02;;;6.60;99.90;;;;;;5036041;28;20051;-74
2023/04/30 01:26:58;;;;;;;16.42;8.27;;;6.50;99.90;;;;;;5053850;28;20027;-74
2023/04/30 01:29:25;;;;;;;15.70;8.40;;;6.50;99.90;;;;;;5053931;28;20017;-74
2023/04/30 01:31:51;;;;;;;12.52;7.88;;;6.40;99.90;;;;;;5054022;28;20021;-75
2023/04/30 01:34:16;;;;;;;14.65;8.55;;;6.30;99.90;;;;;;5053869;28;20024;-75
2023/04/30 01:37:01;;;;;;;17.42;10.60;;;6.30;99.90;;;;;;5049556;28;20036;-74
2023/04/30 01:39:57;;;;;;;17.73;9.93;;;6.20;99.90;;;;;;5044355;28;20033;-74
2023/04/30 01:42:32;;;;;;;14.07;9.25;;;6.20;99.90;;;;;;5038736;28;20035;-75
2023/04/30 01:45:11;;;;;;;18.20;10.20;;;6.20;99.90;;;;;;5038891;28;20385;-74
2023/04/30 01:48:05;;;;;;;20.70;11.85;;;6.20;99.90;;;;;;5053809;28;20021;-74
2023/04/30 01:50:31;;;;;;;17.73;9.25;;;6.20;99.90;;;;;;5027185;28;20080;-74
2023/04/30 01:52:59;;;;;;;18.60;8.82;;;6.10;99.90;;;;;;5035792;28;21328;-74
2023/04/30 01:55:50;;;;;;;14.98;8.60;;;6.10;99.90;;;;;;5053710;28;20025;-74
2023/04/30 01:58:17;;;;;;;15.45;9.32;;;6.10;99.90;;;;;;5053465;28;20453;-74
2023/04/30 02:00:43;;;;;;;15.15;9.27;;;6.10;99.90;;;;;;5053309;28;20108;-74
2023/04/30 02:03:08;;;;;;;15.55;8.65;;;6.00;99.90;;;;;;5052908;28;20056;-74
2023/04/30 02:05:34;;;;;;;16.58;9.13;;;6.00;99.90;;;;;;5053603;28;20370;-74
2023/04/30 02:07:59;;;;;;;19.35;9.68;;;6.00;99.90;;;;;;5053475;28;20396;-75
2023/04/30 02:10:26;;;;;;;19.83;10.02;;;6.00;99.90;;;;;;5053222;28;20091;-74
2023/04/30 02:12:52;;;;;;;21.40;12.02;;;5.90;99.90;;;;;;5053346;28;20055;-74
2023/04/30 02:15:18;;;;;;;19.92;11.23;;;5.90;99.90;;;;;;5061599;28;20064;-74
2023/04/30 02:17:43;;;;;;;22.00;11.10;;;5.90;99.90;;;;;;5073121;28;20527;-74
2023/04/30 02:20:09;;;;;;;15.35;10.07;;;5.90;99.90;;;;;;5072821;28;20040;-75
2023/04/30 02:22:35;;;;;;;18.60;9.63;;;5.90;99.90;;;;;;5073182;28;20025;-75
2023/04/30 02:25:01;;;;;;;17.40;10.27;;;5.80;99.90;;;;;;5073126;28;20377;-74
2023/04/30 02:27:29;;;;;;;17.48;10.77;;;5.80;99.90;;;;;;5072864;28;20028;-74
2023/04/30 02:29:55;;;;;;;23.08;10.52;;;5.80;99.90;;;;;;5073088;28;20075;-74
2023/04/30 02:32:21;;;;;;;21.25;12.05;;;5.80;99.90;;;;;;5054813;28;20492;-74
2023/04/30 02:34:46;;;;;;;21.38;12.38;;;5.80;99.90;;;;;;5072840;28;20035;-74
2023/04/30 02:37:12;;;;;;;20.90;12.65;;;5.80;99.90;;;;;;5066818;28;20017;-74
2023/04/30 02:39:37;;;;;;;15.48;9.18;;;5.80;99.90;;;;;;5052776;28;20036;-74
2023/04/30 02:42:05;;;;;;;19.27;10.93;;;5.70;99.90;;;;;;5052812;28;20448;-74
2023/04/30 02:44:31;;;;;;;18.67;11.18;;;5.70;99.90;;;;;;5034633;28;20123;-74
2023/04/30 02:46:57;;;;;;;18.38;10.93;;;5.70;99.90;;;;;;5052790;28;20032;-74
2023/04/30 02:49:22;;;;;;;19.67;11.50;;;5.70;99.90;;;;;;5052217;28;20025;-74
2023/04/30 02:51:48;;;;;;;21.48;11.38;;;5.70;99.90;;;;;;5052547;28;20025;-74
2023/04/30 02:54:13;;;;;;;17.58;10.60;;;5.70;99.90;;;;;;5034341;28;20025;-74
2023/04/30 02:56:39;;;;;;;23.55;12.00;;;5.80;99.90;;;;;;5052454;28;20025;-74
2023/04/30 02:59:05;;;;;;;16.88;9.98;;;5.90;99.90;;;;;;5052554;28;20033;-74
2023/04/30 03:01:30;;;;;;;18.73;10.35;;;5.90;99.90;;;;;;5034389;28;20541;-74
2023/04/30 03:03:57;;;;;;;17.42;10.18;;;5.80;99.90;;;;;;5034324;28;20029;-74
2023/04/30 03:06:22;;;;;;;21.25;11.43;;;5.80;99.90;;;;;;5052239;28;20024;-74
2023/04/30 03:08:48;;;;;;;18.50;9.95;;;5.80;99.90;;;;;;5052166;28;20541;-74
2023/04/30 03:11:13;;;;;;;16.58;10.25;;;5.90;99.90;;;;;;5052111;28;20053;-74
2023/04/30 03:13:40;;;;;;;17.92;10.20;;;5.80;99.90;;;;;;5053213;28;20029;-74
2023/04/30 03:16:05;;;;;;;17.17;11.15;;;5.80;99.90;;;;;;5052052;28;20501;-74
2023/04/30 03:18:31;;;;;;;18.05;11.20;;;5.80;99.90;;;;;;5051595;28;20040;-74
2023/04/30 03:20:57;;;;;;;16.45;9.82;;;5.80;99.90;;;;;;5052085;28;20041;-74
2023/04/30 03:23:25;;;;;;;21.90;11.73;;;5.80;99.90;;;;;;5051974;28;20428;-74
2023/04/30 03:25:51;;;;;;;20.42;11.77;;;5.80;99.90;;;;;;5051941;28;20025;-74
2023/04/30 03:28:16;;;;;;;21.70;10.95;;;5.70;99.90;;;;;;5051689;28;20492;-74
2023/04/30 03:30:42;;;;;;;18.08;11.23;;;5.70;99.90;;;;;;5034050;28;20465;-74
2023/04/30 03:33:07;;;;;;;23.45;11.70;;;5.70;99.90;;;;;;5050475;28;20036;-74
2023/04/30 03:35:33;;;;;;;21.98;12.20;;;5.70;99.90;;;;;;5067764;28;20083;-75
2023/04/30 03:38:00;;;;;;;22.85;11.63;;;5.60;99.90;;;;;;5051893;28;20044;-74
2023/04/30 03:40:25;;;;;;;14.55;9.38;;;5.60;99.90;;;;;;5051547;28;20140;-74
2023/04/30 03:42:51;;;;;;;22.95;11.63;;;5.60;99.90;;;;;;5034012;28;20340;-74
2023/04/30 03:45:16;;;;;;;19.00;11.00;;;5.60;99.90;;;;;;5067401;28;20029;-75
2023/04/30 03:47:42;;;;;;;18.23;10.65;;;5.60;99.90;;;;;;5071671;28;20060;-75
2023/04/30 03:50:09;;;;;;;19.35;11.93;;;5.60;99.90;;;;;;5071354;28;20063;-75
2023/04/30 03:52:38;;;;;;;21.33;12.60;;;5.60;99.90;;;;;;5053646;28;20545;-75
2023/04/30 03:55:04;;;;;;;19.20;11.25;;;5.60;99.90;;;;;;5071824;28;20110;-75
2023/04/30 03:57:30;;;;;;;19.77;10.75;;;5.60;99.90;;;;;;5071573;28;20163;-74
2023/04/30 03:59:56;;;;;;;20.02;11.90;;;5.50;99.90;;;;;;5071144;28;20112;-75
2023/04/30 04:02:21;;;;;;;20.75;11.57;;;5.50;99.90;;;;;;5071294;28;20361;-75
2023/04/30 04:04:48;;;;;;;22.40;11.35;;;5.50;99.90;;;;;;5071733;28;20555;-74
2023/04/30 04:07:13;;;;;;;18.48;10.50;;;5.50;99.90;;;;;;5071210;28;20546;-75
2023/04/30 04:09:39;;;;;;;19.55;10.43;;;5.40;99.90;;;;;;5071520;28;20021;-75
2023/04/30 04:12:05;;;;;;;18.35;10.88;;;5.40;99.90;;;;;;5071906;28;20456;-75
2023/04/30 04:14:30;;;;;;;18.27;10.75;;;5.40;99.90;;;;;;5068618;28;20441;-75
2023/04/30 04:16:59;;;;;;;15.88;10.20;;;5.30;99.90;;;;;;5051359;28;20460;-75
2023/04/30 04:19:25;;;;;;;21.52;11.15;;;5.30;99.90;;;;;;5063044;28;20560;-74
2023/04/30 04:21:51;;;;;;;18.42;11.52;;;5.20;99.90;;;;;;5071437;28;20040;-75
2023/04/30 04:24:16;;;;;;;19.85;12.02;;;5.20;99.90;;;;;;5070937;28;20558;-75
2023/04/30 04:26:42;;;;;;;21.70;11.63;;;5.20;99.90;;;;;;5071256;28;20082;-74
2023/04/30 04:29:08;;;;;;;22.33;11.40;;;5.10;99.90;;;;;;5075335;28;20384;-75
2023/04/30 04:31:34;;;;;;;18.25;11.55;;;5.20;99.90;;;;;;5063931;28;20032;-75
2023/04/30 04:34:02;;;;;;;18.85;10.77;;;5.20;99.90;;;;;;5056837;28;20476;-75
2023/04/30 04:36:29;;;;;;;18.23;11.07;;;5.20;99.90;;;;;;5054650;28;20193;-74
2023/04/30 04:39:00;;;;;;;22.20;11.93;;;5.20;99.90;;;;;;5066694;28;20024;-74
2023/04/30 04:41:34;;;;;;;19.70;12.17;;;5.20;99.90;;;;;;5074976;28;20043;-75
2023/04/30 04:44:03;;;;;;;24.52;11.13;;;5.20;99.90;;;;;;5075379;28;20315;-74
2023/04/30 04:46:30;;;;;;;20.55;12.27;;;5.20;99.90;;;;;;5074495;28;20035;-75
2023/04/30 04:48:56;;;;;;;23.60;12.13;;;5.30;99.90;;;;;;5075019;28;20100;-74
2023/04/30 04:51:22;;;;;;;23.85;12.70;;;5.30;99.90;;;;;;5074694;28;20381;-74
2023/04/30 04:53:48;;;;;;;23.67;12.10;;;5.40;99.90;;;;;;5057014;28;20027;-76
2023/04/30 04:56:13;;;;;;;19.65;13.02;;;5.50;99.90;;;;;;5074572;28;20033;-75
2023/04/30 04:58:41;;;;;;;23.42;12.55;;;5.60;99.90;;;;;;5074399;28;20500;-74
2023/04/30 05:01:08;;;;;;;22.90;12.73;;;5.70;99.90;;;;;;5067905;28;20033;-75
2023/04/30 05:03:35;;;;;;;20.40;12.75;;;5.80;99.90;;;;;;5074996;28;20032;-75
2023/04/30 05:06:02;;;;;;;23.05;13.82;;;5.90;99.90;;;;;;5074773;28;20016;-75
2023/04/30 05:08:28;;;;;;;24.45;13.45;;;5.90;99.90;;;;;;5074600;28;20032;-75
2023/04/30 05:10:53;;;;;;;21.35;12.70;;;6.00;99.90;;;;;;5056546;28;20389;-75
2023/04/30 05:13:19;;;;;;;26.92;13.95;;;6.10;99.90;;;;;;5074583;28;20079;-75
2023/04/30 05:15:45;;;;;;;26.73;14.15;;;6.10;99.90;;;;;;5048019;28;20118;-75
2023/04/30 05:18:10;;;;;;;19.42;12.35;;;6.20;99.90;;;;;;5054209;28;20076;-75
2023/04/30 05:20:36;;;;;;;21.73;13.63;;;6.30;99.90;;;;;;5071873;28;20538;-75
2023/04/30 05:23:02;;;;;;;24.80;14.50;;;6.40;99.90;;;;;;5074498;28;20545;-75
2023/04/30 05:25:28;;;;;;;23.05;13.68;;;6.40;99.90;;;;;;5074369;28;20032;-75
2023/04/30 05:27:55;;;;;;;26.88;14.25;;;6.40;99.90;;;;;;5074629;28;20021;-75
2023/04/30 05:30:20;;;;;;;26.55;14.82;;;6.50;99.90;;;;;;5040073;28;20028;-75
2023/04/30 05:32:49;;;;;;;23.17;13.50;;;6.60;99.90;;;;;;5073992;28;20024;-74
2023/04/30 05:35:15;;;;;;;25.45;14.43;;;6.70;99.90;;;;;;5073973;28;20392;-75
2023/04/30 05:37:41;;;;;;;24.20;14.43;;;6.70;99.90;;;;;;5073823;28;20389;-75
2023/04/30 05:40:07;;;;;;;24.48;14.48;;;6.80;99.90;;;;;;5074149;28;20044;-75
2023/04/30 05:42:33;;;;;;;24.55;16.02;;;6.90;99.90;;;;;;5073749;28;20025;-74
2023/04/30 05:44:58;;;;;;;23.23;14.63;;;7.00;99.90;;;;;;5074020;28;20031;-75
2023/04/30 05:47:24;;;;;;;28.15;16.00;;;7.10;99.90;;;;;;5073517;28;20070;-75
2023/04/30 05:49:49;;;;;;;23.13;13.80;;;7.30;99.90;;;;;;5073862;28;20031;-75
2023/04/30 05:52:16;;;;;;;24.30;15.45;;;7.40;99.90;;;;;;5055456;28;20048;-75
2023/04/30 05:54:42;;;;;;;22.58;14.55;;;7.60;99.90;;;;;;5074037;28;20037;-75
2023/04/30 05:57:07;;;;;;;25.25;14.90;;;7.80;99.90;;;;;;5073678;28;20020;-75
2023/04/30 05:59:33;;;;;;;24.15;14.52;;;8.00;99.90;;;;;;5072016;28;20035;-75
2023/04/30 06:01:58;;;;;;;20.25;14.32;;;8.10;99.90;;;;;;5055331;28;20020;-75
2023/04/30 06:04:24;;;;;;;21.67;13.65;;;8.20;99.90;;;;;;5073506;28;20025;-75
2023/04/30 06:06:49;;;;;;;20.58;12.52;;;8.40;99.90;;;;;;5055799;28;20027;-75
2023/04/30 06:09:15;;;;;;;18.88;12.40;;;8.50;99.90;;;;;;5073298;28;20035;-75
2023/04/30 06:11:40;;;;;;;17.63;11.75;;;8.70;99.90;;;;;;5073459;28;20049;-75
2023/04/30 06:14:06;;;;;;;20.50;11.48;;;8.70;99.90;;;;;;5073723;28;20054;-75
2023/04/30 06:16:31;;;;;;;16.50;9.90;;;8.90;99.90;;;;;;5054706;28;20078;-75
2023/04/30 06:18:57;;;;;;;13.73;9.70;;;9.00;99.90;;;;;;5073557;28;20024;-75
2023/04/30 06:21:25;;;;;;;17.25;10.27;;;9.10;99.90;;;;;;5073040;28;20024;-75
2023/04/30 06:23:51;;;;;;;17.55;9.10;;;9.20;99.90;;;;;;5073374;28;20087;-75
2023/04/30 06:26:18;;;;;;;13.60;8.77;;;9.30;99.90;;;;;;5055937;28;20510;-75
2023/04/30 06:28:44;;;;;;;14.05;8.70;;;9.40;99.90;;;;;;5052914;28;20108;-75
2023/04/30 06:31:10;;;;;;;13.10;8.43;;;9.50;99.90;;;;;;5054405;28;20029;-75
2023/04/30 06:33:35;;;;;;;15.38;7.97;;;9.50;99.90;;;;;;5073021;28;20029;-75
2023/04/30 06:36:01;;;;;;;12.10;7.82;;;9.70;99.90;;;;;;5073132;28;20036;-75
2023/04/30 06:38:26;;;;;;;13.70;6.63;;;9.70;99.90;;;;;;5072438;28;20385;-75
2023/04/30 06:40:52;;;;;;;16.55;7.20;;;9.80;99.90;;;;;;5072825;28;20566;-75
2023/04/30 06:43:17;;;;;;;10.65;6.97;;;10.00;99.90;;;;;;5072010;28;20031;-76
2023/04/30 06:45:43;;;;;;;12.45;7.07;;;10.00;99.90;;;;;;5073156;28;20028;-75
2023/04/30 06:48:09;;;;;;;12.18;6.60;;;10.20;99.90;;;;;;5072337;28;20032;-76
2023/04/30 06:50:42;;;;;;;11.15;6.63;;;10.20;99.90;;;;;;5071954;28;20029;-75
2023/04/30 06:53:08;;;;;;;11.93;6.53;;;10.40;99.90;;;;;;5072338;28;20064;-76
2023/04/30 06:55:33;;;;;;;10.63;6.53;;;10.50;99.90;;;;;;5072254;28;20044;-75
2023/04/30 06:57:59;;;;;;;8.82;5.47;;;10.60;99.90;;;;;;5072632;28;20024;-75
2023/04/30 07:00:25;;;;;;;13.23;6.25;;;10.70;99.90;;;;;;5054094;28;20032;-75
2023/04/30 07:02:50;;;;;;;9.27;5.22;;;10.90;99.90;;;;;;5072796;28;20021;-75
2023/04/30 07:05:16;;;;;;;11.70;5.47;;;11.00;99.90;;;;;;5071986;28;20024;-76
2023/04/30 07:07:42;;;;;;;8.40;5.50;;;11.00;99.90;;;;;;5072331;28;20096;-75
2023/04/30 07:10:08;;;;;;;13.30;6.00;;;11.10;99.90;;;;;;5072493;28;20033;-75
2023/04/30 07:12:33;;;;;;;9.95;5.97;;;11.10;99.90;;;;;;5072123;28;20495;-76
2023/04/30 07:14:59;;;;;;;8.60;5.40;;;11.20;99.90;;;;;;5071086;28;20056;-75
2023/04/30 07:17:25;;;;;;;11.93;6.57;;;11.20;99.90;;;;;;5071791;28;20031;-76
2023/04/30 07:19:50;;;;;;;8.82;5.45;;;11.30;99.90;;;;;;5054058;28;20059;-75
2023/04/30 07:22:18;;;;;;;10.88;6.00;;;11.30;99.90;;;;;;5071630;28;20104;-75
2023/04/30 07:24:44;;;;;;;10.18;5.95;;;11.40;99.90;;;;;;5071768;28;20485;-76
2023/04/30 07:27:22;;;;;;;9.07;5.97;;;11.50;99.90;;;;;;5071388;28;20028;-75
2023/04/30 07:29:48;;;;;;;9.65;5.80;;;11.60;99.90;;;;;;5071582;28;20496;-76
2023/04/30 07:32:15;;;;;;;12.35;6.03;;;11.70;99.90;;;;;;5071109;28;20021;-76
2023/04/30 07:34:40;;;;;;;9.18;5.90;;;11.80;99.90;;;;;;5072082;28;20024;-75
2023/04/30 07:37:06;;;;;;;8.90;5.72;;;11.80;99.90;;;;;;5071566;28;20560;-76
2023/04/30 07:39:45;;;;;;;9.80;5.80;;;11.90;99.90;;;;;;5071802;28;20123;-75
2023/04/30 07:42:24;;;;;;;9.45;6.30;;;11.90;99.90;;;;;;5072002;28;20021;-75
2023/04/30 07:44:51;;;;;;;8.60;5.80;;;12.00;99.90;;;;;;5072394;28;20021;-75
2023/04/30 07:47:18;;;;;;;11.00;6.07;;;12.10;99.90;;;;;;5045205;28;20459;-75
2023/04/30 07:49:48;;;;;;;9.32;5.68;;;12.10;99.90;;;;;;5051692;28;20045;-75
2023/04/30 07:52:14;;;;;;;8.05;5.55;;;12.20;99.90;;;;;;5054435;28;20095;-75
2023/04/30 07:54:40;;;;;;;13.80;6.50;;;12.20;99.90;;;;;;5071522;28;20548;-76
2023/04/30 07:57:06;;;;;;;9.32;5.63;;;12.20;99.90;;;;;;5071939;28;20029;-75
2023/04/30 07:59:31;;;;;;;9.32;6.00;;;12.30;99.90;;;;;;5071196;28;20064;-74
2023/04/30 08:01:57;;;;;;;10.90;6.28;;;12.40;99.90;;;;;;5071208;28;20067;-74
2023/04/30 08:04:23;;;;;;;10.27;6.55;;;12.50;99.90;;;;;;5071011;28;20021;-75
2023/04/30 08:06:49;;;;;;;10.57;6.80;;;12.60;99.90;;;;;;5071293;28;20028;-74
2023/04/30 08:09:15;;;;;;;11.25;6.65;;;12.60;99.90;;;;;;5070727;28;20028;-74
2023/04/30 08:11:41;;;;;;;12.43;7.18;;;12.70;99.90;;;;;;5071471;28;20070;-75
2023/04/30 08:14:06;;;;;;;10.27;6.72;;;12.60;99.90;;;;;;5071466;28;20524;-75
2023/04/30 08:16:32;;;;;;;9.15;6.03;;;12.60;99.90;;;;;;5070747;28;20132;-75
2023/04/30 08:18:58;;;;;;;14.38;8.00;;;12.60;99.90;;;;;;5071213;28;20354;-75
2023/04/30 08:21:24;;;;;;;12.10;6.90;;;12.60;99.90;;;;;;5068660;28;20028;-75
2023/04/30 08:23:49;;;;;;;10.13;6.78;;;12.60;99.90;;;;;;5050974;28;20021;-75
2023/04/30 08:26:15;;;;;;;10.60;6.97;;;12.70;99.90;;;;;;5050920;28;20025;-75
2023/04/30 08:28:40;;;;;;;11.10;6.53;;;12.70;99.90;;;;;;5055396;28;20035;-75
2023/04/30 08:31:06;;;;;;;9.82;7.47;;;12.70;99.90;;;;;;5071123;28;20039;-75
2023/04/30 08:33:32;;;;;;;9.68;6.85;;;12.70;99.90;;;;;;5070743;28;20029;-77
2023/04/30 08:35:58;;;;;;;12.48;7.15;;;12.80;99.90;;;;;;5053193;28;20044;-76
2023/04/30 08:38:24;;;;;;;13.43;6.13;;;12.80;99.90;;;;;;5070257;28;20484;-76
2023/04/30 08:41:05;;;;;;;10.25;6.88;;;12.80;99.90;;;;;;5070912;28;20036;-76
2023/04/30 08:43:34;;;;;;;9.80;6.75;;;12.80;99.90;;;;;;5070577;28;20476;-76
2023/04/30 08:45:59;;;;;;;9.23;6.32;;;12.90;99.90;;;;;;5071033;28;20439;-76
2023/04/30 08:48:26;;;;;;;11.07;7.35;;;12.90;99.90;;;;;;5070725;28;20025;-76
2023/04/30 08:50:52;;;;;;;9.52;6.78;;;13.00;99.90;;;;;;5070381;28;20029;-76
2023/04/30 08:53:20;;;;;;;8.50;5.82;;;13.00;99.90;;;;;;5070653;28;20025;-76
2023/04/30 08:55:46;;;;;;;9.57;6.78;;;13.20;99.90;;;;;;5070834;28;20091;-76
2023/04/30 08:58:14;;;;;;;11.05;6.45;;;13.30;99.90;;;;;;5052524;28;20063;-76
2023/04/30 09:00:40;;;;;;;8.77;6.22;;;13.40;99.90;;;;;;5070712;28;20037;-76
2023/04/30 09:03:07;;;;;;;14.43;8.18;;;13.60;99.90;;;;;;5070637;28;20043;-75
2023/04/30 09:05:32;;;;;;;8.55;6.13;;;13.60;99.90;;;;;;5070057;28;20472;-77
2023/04/30 09:07:58;;;;;;;9.85;7.18;;;13.70;99.90;;;;;;5070723;28;20027;-76
2023/04/30 09:10:24;;;;;;;12.90;6.80;;;13.90;99.90;;;;;;5070231;28;20476;-75
2023/04/30 09:13:07;;;;;;;9.10;5.70;;;13.90;99.90;;;;;;5071878;28;20052;-75
2023/04/30 09:15:35;;;;;;;11.27;6.40;;;14.00;99.90;;;;;;5074103;28;20400;-75
2023/04/30 09:18:18;;;;;;;7.68;6.10;;;13.90;99.90;;;;;;5073957;28;20031;-75
2023/04/30 09:20:59;;;;;;;9.65;6.65;;;14.00;99.90;;;;;;5073871;28;20436;-75
2023/04/30 09:23:25;;;;;;;11.27;6.20;;;14.20;99.90;;;;;;5055928;28;20024;-75
2023/04/30 09:25:50;;;;;;;7.50;6.15;;;14.30;99.90;;;;;;5074154;28;20021;-75
2023/04/30 09:28:16;;;;;;;9.27;6.28;;;14.30;99.90;;;;;;5060919;28;20516;-75
2023/04/30 09:30:42;;;;;;;9.68;6.68;;;14.30;99.90;;;;;;5053936;28;20420;-75
2023/04/30 09:33:29;;;;;;;9.57;5.53;;;14.30;99.90;;;;;;5054109;28;20024;-75
2023/04/30 09:35:54;;;;;;;13.38;6.15;;;14.40;99.90;;;;;;5053426;28;20124;-74
2023/04/30 09:38:31;;;;;;;10.32;5.68;;;14.40;99.90;;;;;;5063287;28;20103;-75
2023/04/30 09:41:00;;;;;;;8.57;6.07;;;14.60;99.90;;;;;;5074048;28;20451;-75
2023/04/30 09:43:27;;;;;;;9.98;5.45;;;14.60;99.90;;;;;;5073067;28;20081;-74
2023/04/30 09:45:53;;;;;;;10.60;5.78;;;14.60;99.90;;;;;;5073869;28;20419;-75
2023/04/30 09:48:22;;;;;;;11.82;6.28;;;14.60;99.90;;;;;;5055678;28;20028;-75
2023/04/30 09:50:48;;;;;;;11.02;6.00;;;14.60;99.90;;;;;;5073698;28;20472;-75
2023/04/30 09:53:16;;;;;;;7.55;4.57;;;14.60;99.90;;;;;;5073218;28;20043;-74
2023/04/30 09:55:51;;;;;;;8.15;5.22;;;14.70;99.90;;;;;;5073358;28;20020;-74
2023/04/30 09:58:18;;;;;;;11.85;5.20;;;14.80;99.90;;;;;;5073560;28;20115;-74
2023/04/30 10:00:45;;;;;;;10.77;6.35;;;14.70;99.90;;;;;;5057806;28;20033;-74
2023/04/30 10:03:13;;;;;;;8.57;5.15;;;14.70;99.90;;;;;;5053488;28;20018;-75
2023/04/30 10:05:47;;;;;;;7.60;4.72;;;14.80;99.90;;;;;;5053648;28;20033;-74
2023/04/30 10:08:23;;;;;;;6.95;4.50;;;14.80;99.90;;;;;;5053169;28;20056;-75
2023/04/30 10:10:52;;;;;;;7.45;4.82;;;15.00;99.90;;;;;;5070128;28;20455;-74
2023/04/30 10:13:19;;;;;;;5.97;4.20;;;15.10;99.90;;;;;;5073243;28;20036;-75
2023/04/30 10:15:50;;;;;;;5.75;4.25;;;15.10;99.90;;;;;;5073164;28;20067;-75
2023/04/30 10:18:27;;;;;;;6.43;4.07;;;15.10;99.90;;;;;;5054825;28;20537;-75
2023/04/30 10:20:55;;;;;;;8.43;4.40;;;15.10;99.90;;;;;;5073015;28;20039;-74
2023/04/30 10:23:21;;;;;;;6.95;4.30;;;15.10;99.90;;;;;;5072894;28;20469;-74
2023/04/30 10:25:49;;;;;;;6.82;4.40;;;15.20;99.90;;;;;;5073056;28;20020;-75
2023/04/30 10:28:15;;;;;;;6.20;3.97;;;15.20;99.90;;;;;;5071419;28;20032;-75
2023/04/30 10:30:42;;;;;;;6.30;3.38;;;15.20;99.90;;;;;;5073137;28;20495;-75
2023/04/30 10:33:34;;;;;;;5.70;3.47;;;15.30;99.90;;;;;;5072755;28;20078;-75
2023/04/30 10:36:07;;;;;;;7.07;3.17;;;15.40;99.90;;;;;;5073229;28;20090;-75
2023/04/30 10:38:35;;;;;;;5.35;3.15;;;15.50;99.90;;;;;;5072639;28;20408;-75
2023/04/30 10:41:01;;;;;;;6.40;3.90;;;15.60;99.90;;;;;;5054776;28;20032;-75
2023/04/30 10:43:29;;;;;;;5.85;3.55;;;15.70;99.90;;;;;;5072570;28;20048;-74
2023/04/30 10:46:00;;;;;;;6.57;3.70;;;15.80;99.90;;;;;;5072911;28;20025;-75
2023/04/30 10:48:26;;;;;;;5.22;2.88;;;15.80;99.90;;;;;;5063782;28;20024;-75
2023/04/30 10:50:56;;;;;;;5.57;3.35;;;15.90;99.90;;;;;;5052799;28;20051;-75
2023/04/30 10:53:24;;;;;;;5.05;2.60;;;16.00;99.90;;;;;;5052242;28;20370;-75
2023/04/30 10:55:56;;;;;;;5.72;3.05;;;16.10;99.90;;;;;;5059022;28;20055;-74
2023/04/30 10:58:28;;;;;;;4.57;3.28;;;16.20;99.90;;;;;;5071902;28;20020;-76
2023/04/30 11:01:14;;;;;;;;;;;16.30;99.90;;;;;;5073083;28;20046;-76
2023/04/30 11:03:41;;;;;;;5.80;3.28;;;16.20;99.90;;;;;;5072663;28;20004;-76
2023/04/30 11:06:18;;;;;;;4.82;2.75;;;16.10;99.90;;;;;;5072314;28;20071;-76
2023/04/30 11:08:45;;;;;;;3.70;2.13;;;16.20;99.90;;;;;;5054271;28;20020;-77
2023/04/30 11:11:16;;;;;;;6.13;2.75;;;16.20;99.90;;;;;;5053859;28;20032;-76
2023/04/30 11:13:46;;;;;;;4.88;2.67;;;16.30;99.90;;;;;;5072653;28;20035;-77
2023/04/30 11:16:12;;;;;;;4.43;2.60;;;16.40;99.90;;;;;;5067956;28;20314;-76
2023/04/30 11:18:44;;;;;;;4.82;2.45;;;16.40;99.90;;;;;;5032240;28;20072;-76
2023/04/30 11:21:10;;;;;;;3.05;1.90;;;16.30;99.90;;;;;;5054419;28;20425;-76
2023/04/30 11:23:42;;;;;;;3.90;2.47;;;16.40;99.90;;;;;;5072058;28;20051;-76
2023/04/30 11:26:08;;;;;;;4.70;2.38;;;16.30;99.90;;;;;;5071698;28;20883;-76
2023/04/30 11:28:35;;;;;;;6.93;3.00;;;16.40;99.90;;;;;;5071902;28;20379;-77
2023/04/30 11:31:01;;;;;;;4.22;2.65;;;16.60;99.90;;;;;;5072027;28;20027;-76
2023/04/30 11:33:32;;;;;;;3.95;2.45;;;16.60;99.90;;;;;;5071799;28;20028;-77
2023/04/30 11:35:59;;;;;;;3.35;2.40;;;16.50;99.90;;;;;;5071240;28;20074;-76
2023/04/30 11:38:27;;;;;;;4.88;2.08;;;16.60;99.90;;;;;;5071489;28;20032;-76
2023/04/30 11:40:55;;;;;;;3.13;2.10;;;16.70;99.90;;;;;;5071615;28;20404;-76
2023/04/30 11:43:32;;;;;;;5.28;2.30;;;16.70;99.80;;;;;;5063638;28;20113;-76
2023/04/30 11:46:09;;;;;;;3.13;2.00;;;16.80;99.90;;;;;;5058896;28;20048;-77
2023/04/30 11:48:37;;;;;;;4.85;2.50;;;16.90;99.90;;;;;;5063472;28;20027;-77
2023/04/30 11:51:16;;;;;;;3.70;2.08;;;16.90;99.30;;;;;;5071797;28;20029;-76
2023/04/30 11:53:44;;;;;;;3.63;2.67;;;17.00;99.90;;;;;;5071989;28;20020;-76
2023/04/30 11:56:09;;;;;;;5.28;2.97;;;17.10;99.70;;;;;;5070094;28;20472;-77
2023/04/30 11:58:39;;;;;;;4.50;2.78;;;17.20;99.70;;;;;;5071516;28;20029;-76
2023/04/30 12:01:08;;;;;;;5.50;3.05;;;17.30;98.80;;;;;;5053474;28;20036;-78
2023/04/30 12:03:49;;;;;;;5.22;2.60;;;17.30;99.00;;;;;;5071509;28;20019;-76
2023/04/30 12:06:26;;;;;;;4.07;2.67;;;17.30;98.70;;;;;;5071204;28;20476;-76
2023/04/30 12:09:07;;;;;;;4.05;2.30;;;17.40;98.20;;;;;;5071855;28;20111;-76
2023/04/30 12:11:34;;;;;;;4.32;1.95;;;17.40;98.10;;;;;;5071228;28;20039;-76
2023/04/30 12:14:11;;;;;;;5.88;3.03;;;17.50;98.80;;;;;;5071284;28;20032;-77
2023/04/30 12:16:44;;;;;;;3.28;2.10;;;17.60;97.90;;;;;;5071410;28;20102;-77
2023/04/30 12:19:13;;;;;;;6.13;2.90;;;17.60;97.20;;;;;;5072278;28;20484;-77
2023/04/30 12:21:41;;;;;;;4.97;3.38;;;17.50;96.50;;;;;;5053856;28;20033;-77
2023/04/30 12:24:07;;;;;;;5.30;2.22;;;17.40;96.40;;;;;;5070746;28;20026;-76
2023/04/30 12:26:38;;;;;;;6.13;2.70;;;17.40;97.10;;;;;;5071157;28;20465;-77
2023/04/30 12:29:07;;;;;;;3.33;1.98;;;17.50;96.70;;;;;;5071784;28;20021;-77
2023/04/30 12:31:33;;;;;;;5.18;2.25;;;17.60;96.80;;;;;;5071574;28;20036;-77
2023/04/30 12:34:03;;;;;;;3.08;1.83;;;17.60;96.60;;;;;;5071329;28;20023;-77
2023/04/30 12:36:31;;;;;;;4.43;2.30;;;17.70;97.00;;;;;;5071279;28;20029;-76
2023/04/30 12:39:07;;;;;;;5.10;2.70;;;17.90;96.90;;;;;;5067772;28;20020;-77
2023/04/30 12:41:51;;;;;;;3.75;2.25;;;17.90;95.80;;;;;;5070995;28;20029;-77
2023/04/30 12:44:24;;;;;;;3.72;2.55;;;17.80;94.60;;;;;;5070662;28;20021;-77
2023/04/30 12:46:59;;;;;;;4.95;3.50;;;17.70;94.70;;;;;;5071269;28;20020;-77
2023/04/30 12:49:45;;;;;;;4.53;2.05;;;17.70;94.50;;;;;;5074528;28;20032;-77